Time;durP1;ratioP1;P1;durP2;ratioP2;P2;SDS_P1;SDS_P2;PMS_P1;PMS_P2;Temp;Humidity;BMP_temperature;BMP_pressure;BME280_temperature;BME280_humidity;BME280_pressure;Samples;Min_cycle;Max_cycle;Signal;HPM_P1;HPM_P2
2022/04/10 00:00:54;;;;;;;4.07;1.75;;;4.40;75.80;;;;;;5043467;28;20021;-81
2022/04/10 00:03:22;;;;;;;5.38;2.03;;;4.30;75.90;;;;;;5043435;28;20045;-80
2022/04/10 00:05:48;;;;;;;5.55;1.95;;;4.20;76.10;;;;;;5069431;28;20024;-81
2022/04/10 00:08:13;;;;;;;5.45;1.98;;;4.20;76.80;;;;;;5081194;28;20024;-81
2022/04/10 00:10:39;;;;;;;5.63;2.33;;;4.00;76.90;;;;;;5077365;28;20060;-80
2022/04/10 00:13:05;;;;;;;3.40;1.42;;;4.00;77.40;;;;;;5095555;28;20019;-81
2022/04/10 00:15:31;;;;;;;6.18;2.03;;;4.00;77.90;;;;;;5083452;28;20055;-81
2022/04/10 00:17:56;;;;;;;4.18;1.75;;;4.00;78.10;;;;;;5065932;28;20021;-82
2022/04/10 00:20:22;;;;;;;5.45;1.65;;;3.90;78.10;;;;;;5062522;28;20029;-81
2022/04/10 00:22:49;;;;;;;2.65;1.92;;;3.90;78.10;;;;;;5043788;28;20422;-79
2022/04/10 00:25:16;;;;;;;6.68;2.05;;;3.90;78.30;;;;;;5061536;28;20017;-79
2022/04/10 00:27:43;;;;;;;2.42;1.65;;;3.80;78.60;;;;;;5062267;28;20024;-80
2022/04/10 00:30:10;;;;;;;6.25;2.38;;;3.80;79.00;;;;;;5066406;28;20021;-79
2022/04/10 00:32:36;;;;;;;4.70;1.95;;;3.70;78.90;;;;;;5065868;28;20024;-80
2022/04/10 00:35:05;;;;;;;5.55;2.25;;;3.70;79.00;;;;;;5043643;28;20385;-80
2022/04/10 00:37:32;;;;;;;6.00;2.05;;;3.60;79.50;;;;;;5074054;28;20047;-80
2022/04/10 00:39:57;;;;;;;3.85;1.92;;;3.50;80.00;;;;;;5074569;28;20032;-80
2022/04/10 00:42:29;;;;;;;2.65;1.85;;;3.50;80.30;;;;;;5068615;28;20040;-80
2022/04/10 00:44:55;;;;;;;4.60;1.85;;;3.40;80.70;;;;;;5063737;28;20021;-81
2022/04/10 00:47:21;;;;;;;4.53;2.20;;;3.40;81.10;;;;;;5065912;28;20098;-80
2022/04/10 00:49:47;;;;;;;3.17;1.45;;;3.40;81.50;;;;;;5045005;28;20029;-81
2022/04/10 00:52:13;;;;;;;4.47;2.08;;;3.40;81.60;;;;;;5062948;28;20481;-81
2022/04/10 00:54:39;;;;;;;2.15;1.73;;;3.40;81.80;;;;;;5045050;28;20507;-80
2022/04/10 00:57:06;;;;;;;4.55;2.00;;;3.30;81.50;;;;;;5045933;28;20025;-81
2022/04/10 00:59:32;;;;;;;5.15;1.92;;;3.30;82.40;;;;;;5043343;28;20032;-81
2022/04/10 01:01:58;;;;;;;4.53;1.50;;;3.30;82.00;;;;;;5043219;28;20033;-81
2022/04/10 01:04:23;;;;;;;3.22;2.10;;;3.20;82.20;;;;;;5059988;28;20021;-81
2022/04/10 01:06:54;;;;;;;4.82;2.33;;;3.30;82.60;;;;;;5054856;28;20088;-81
2022/04/10 01:09:24;;;;;;;3.38;2.15;;;3.20;82.90;;;;;;5059082;28;20024;-80
2022/04/10 01:11:52;;;;;;;4.80;1.98;;;3.20;83.40;;;;;;5059803;28;20033;-81
2022/04/10 01:14:19;;;;;;;5.95;3.15;;;3.10;83.60;;;;;;5059228;28;20021;-81
2022/04/10 01:16:46;;;;;;;2.60;1.67;;;3.10;83.60;;;;;;5040769;28;20371;-80
2022/04/10 01:19:13;;;;;;;4.07;2.08;;;3.10;84.30;;;;;;5040328;28;20035;-80
2022/04/10 01:21:40;;;;;;;5.05;2.38;;;3.10;84.70;;;;;;5042393;28;20449;-80
2022/04/10 01:24:07;;;;;;;7.05;2.40;;;3.00;84.90;;;;;;5060189;28;20462;-81
2022/04/10 01:26:32;;;;;;;3.00;2.60;;;3.00;85.20;;;;;;5041973;28;20151;-80
2022/04/10 01:29:11;;;;;;;4.43;2.00;;;3.00;85.90;;;;;;5059584;28;20120;-80
2022/04/10 01:31:38;;;;;;;3.97;2.45;;;2.90;86.20;;;;;;5044301;28;20025;-80
2022/04/10 01:34:06;;;;;;;2.30;2.03;;;2.90;86.60;;;;;;5040942;28;20477;-79
2022/04/10 01:36:34;;;;;;;6.13;2.50;;;2.90;87.00;;;;;;5070900;28;20035;-80
2022/04/10 01:39:03;;;;;;;3.60;2.33;;;2.90;87.70;;;;;;5073147;28;20071;-80
2022/04/10 01:41:30;;;;;;;5.05;2.42;;;2.90;87.90;;;;;;5079630;28;20024;-80
2022/04/10 01:43:57;;;;;;;7.82;2.67;;;2.90;88.30;;;;;;5062293;28;20025;-80
2022/04/10 01:46:25;;;;;;;5.50;2.75;;;2.90;88.80;;;;;;5080946;28;20021;-79
2022/04/10 01:48:51;;;;;;;4.38;2.40;;;2.80;89.10;;;;;;5080691;28;20027;-81
2022/04/10 01:51:17;;;;;;;4.55;2.40;;;2.80;90.10;;;;;;5080265;28;20455;-81
2022/04/10 01:53:43;;;;;;;4.95;2.00;;;2.80;90.00;;;;;;5065596;28;20087;-81
2022/04/10 01:56:09;;;;;;;3.85;2.25;;;2.80;90.10;;;;;;5060873;28;20047;-81
2022/04/10 01:58:38;;;;;;;5.53;2.72;;;2.80;90.30;;;;;;5059967;28;20025;-80
2022/04/10 02:01:05;;;;;;;4.50;2.05;;;2.80;90.50;;;;;;5058543;28;20145;-80
2022/04/10 02:03:32;;;;;;;4.65;2.38;;;2.70;90.70;;;;;;5040677;28;20054;-80
2022/04/10 02:05:58;;;;;;;3.53;2.13;;;2.70;90.80;;;;;;5067467;28;20060;-80
2022/04/10 02:08:24;;;;;;;3.67;2.55;;;2.70;91.10;;;;;;5067882;28;20130;-80
2022/04/10 02:10:50;;;;;;;4.88;2.22;;;2.80;91.30;;;;;;5058558;28;20036;-79
2022/04/10 02:13:16;;;;;;;6.78;2.55;;;2.80;91.40;;;;;;5058834;28;20033;-79
2022/04/10 02:15:42;;;;;;;4.55;2.00;;;2.80;91.50;;;;;;5039891;28;20031;-80
2022/04/10 02:18:07;;;;;;;4.43;1.85;;;2.80;91.60;;;;;;5040951;28;20041;-80
2022/04/10 02:20:33;;;;;;;6.22;2.65;;;2.90;91.80;;;;;;5061923;28;20053;-81
2022/04/10 02:22:59;;;;;;;4.57;1.92;;;2.90;91.90;;;;;;5055223;28;20037;-80
2022/04/10 02:25:25;;;;;;;6.55;2.47;;;3.00;91.90;;;;;;5074519;28;20035;-80
2022/04/10 02:27:51;;;;;;;4.90;2.55;;;3.10;91.90;;;;;;5040881;28;20025;-81
2022/04/10 02:30:18;;;;;;;5.25;2.38;;;3.20;92.20;;;;;;5059416;28;20029;-81
2022/04/10 02:32:44;;;;;;;4.95;2.60;;;3.20;92.50;;;;;;5043854;28;20028;-80
2022/04/10 02:35:10;;;;;;;3.08;2.22;;;3.20;92.60;;;;;;5078976;28;20358;-80
2022/04/10 02:37:36;;;;;;;5.90;2.92;;;3.20;92.70;;;;;;5071484;22;20423;-77
2022/04/10 02:40:06;;;;;;;2.72;2.30;;;3.20;93.10;;;;;;5059497;28;20041;-77
2022/04/10 02:42:34;;;;;;;4.40;2.22;;;3.10;93.30;;;;;;5060694;28;20104;-77
2022/04/10 02:45:01;;;;;;;4.00;1.92;;;3.20;93.60;;;;;;5057987;28;20465;-77
2022/04/10 02:47:26;;;;;;;3.58;2.00;;;3.20;93.80;;;;;;5055463;28;20024;-78
2022/04/10 02:49:52;;;;;;;3.80;1.90;;;3.30;93.70;;;;;;5055130;28;20162;-78
2022/04/10 02:52:18;;;;;;;3.38;1.88;;;3.30;93.70;;;;;;5055787;28;20017;-78
2022/04/10 02:54:46;;;;;;;4.70;2.10;;;3.40;93.80;;;;;;5055601;28;20049;-77
2022/04/10 02:57:12;;;;;;;3.53;2.08;;;3.40;93.60;;;;;;5055115;28;20112;-77
2022/04/10 02:59:38;;;;;;;2.33;1.40;;;3.40;93.90;;;;;;5055927;28;20044;-77
2022/04/10 03:02:04;;;;;;;3.95;1.50;;;3.40;94.20;;;;;;5037312;28;20025;-77
2022/04/10 03:04:29;;;;;;;2.58;1.90;;;3.50;94.40;;;;;;5038035;28;20025;-78
2022/04/10 03:06:55;;;;;;;6.93;2.08;;;3.50;94.60;;;;;;5055656;28;20477;-76
2022/04/10 03:09:21;;;;;;;2.90;1.90;;;3.50;94.70;;;;;;5059404;28;20036;-77
2022/04/10 03:11:47;;;;;;;6.68;1.60;;;3.60;94.80;;;;;;5060460;28;20048;-77
2022/04/10 03:14:13;;;;;;;3.20;1.50;;;3.60;95.00;;;;;;5057460;28;20362;-78
2022/04/10 03:16:38;;;;;;;4.85;1.50;;;3.60;95.00;;;;;;5058655;28;20115;-77
2022/04/10 03:19:04;;;;;;;3.38;1.70;;;3.60;95.00;;;;;;5058286;28;20469;-77
2022/04/10 03:21:30;;;;;;;4.60;1.70;;;3.50;96.00;;;;;;5055297;28;20025;-77
2022/04/10 03:23:55;;;;;;;3.83;2.08;;;3.40;96.50;;;;;;5055160;28;20425;-77
2022/04/10 03:26:21;;;;;;;3.38;1.70;;;3.30;96.90;;;;;;5055105;28;20095;-77
2022/04/10 03:28:47;;;;;;;7.10;1.70;;;3.20;97.50;;;;;;5037023;28;20017;-77
2022/04/10 03:31:12;;;;;;;3.55;1.85;;;3.20;98.10;;;;;;5054952;28;20032;-78
2022/04/10 03:33:38;;;;;;;4.35;1.73;;;3.20;98.60;;;;;;5054217;28;20493;-77
2022/04/10 03:36:05;;;;;;;3.72;1.60;;;3.20;99.00;;;;;;5053739;28;20060;-77
2022/04/10 03:38:31;;;;;;;5.32;2.28;;;3.20;99.20;;;;;;5055830;28;20079;-78
2022/04/10 03:40:57;;;;;;;3.33;1.88;;;3.10;99.30;;;;;;5054541;28;20029;-77
2022/04/10 03:43:23;;;;;;;4.93;2.60;;;3.00;99.40;;;;;;5055877;28;20067;-77
2022/04/10 03:45:48;;;;;;;3.45;2.00;;;3.00;99.80;;;;;;5056517;28;20534;-78
2022/04/10 03:48:14;;;;;;;4.32;2.17;;;3.00;99.90;;;;;;5056159;28;20029;-78
2022/04/10 03:50:40;;;;;;;3.63;2.30;;;3.10;99.90;;;;;;5056231;28;20100;-78
2022/04/10 03:53:06;;;;;;;3.92;2.05;;;3.10;99.90;;;;;;5038623;28;20362;-78
2022/04/10 03:55:35;;;;;;;4.32;2.30;;;3.10;99.90;;;;;;5027749;28;20056;-78
2022/04/10 03:58:00;;;;;;;3.53;2.05;;;3.10;99.90;;;;;;5034300;28;20557;-77
2022/04/10 04:00:27;;;;;;;4.43;2.40;;;3.10;99.90;;;;;;5036869;28;20072;-78
2022/04/10 04:02:52;;;;;;;3.53;2.03;;;3.00;99.90;;;;;;5037073;28;20244;-78
2022/04/10 04:05:18;;;;;;;3.40;2.40;;;3.00;99.90;;;;;;5037990;28;20077;-78
2022/04/10 04:07:44;;;;;;;3.22;2.03;;;3.00;99.90;;;;;;5039871;28;20084;-77
2022/04/10 04:10:10;;;;;;;4.50;2.35;;;3.00;99.90;;;;;;5036781;28;20147;-78
2022/04/10 04:12:36;;;;;;;4.25;2.55;;;3.00;99.90;;;;;;5039645;28;20025;-78
2022/04/10 04:15:03;;;;;;;3.45;2.50;;;3.00;99.90;;;;;;5053589;28;20022;-79
2022/04/10 04:17:29;;;;;;;4.00;2.25;;;2.90;99.90;;;;;;5034871;28;20036;-76
2022/04/10 04:19:55;;;;;;;4.25;2.38;;;2.80;99.90;;;;;;5033965;28;20029;-77
2022/04/10 04:22:21;;;;;;;3.50;2.25;;;2.80;99.90;;;;;;5035707;28;20084;-76
2022/04/10 04:24:46;;;;;;;3.30;2.30;;;2.80;99.90;;;;;;5035041;28;20033;-77
2022/04/10 04:27:12;;;;;;;5.72;2.88;;;2.80;99.90;;;;;;5034140;28;20029;-77
2022/04/10 04:29:38;;;;;;;3.28;2.60;;;2.80;99.90;;;;;;5017163;28;20048;-77
2022/04/10 04:32:05;;;;;;;5.85;2.78;;;2.80;99.90;;;;;;5035296;28;20025;-78
2022/04/10 04:34:31;;;;;;;3.92;2.75;;;2.80;99.90;;;;;;5035602;28;20056;-77
2022/04/10 04:36:57;;;;;;;3.83;2.70;;;2.80;99.90;;;;;;5035448;28;20461;-78
2022/04/10 04:39:23;;;;;;;5.97;3.20;;;2.80;99.90;;;;;;5035831;28;20045;-78
2022/04/10 04:41:49;;;;;;;5.20;3.03;;;2.90;99.90;;;;;;5039635;28;20084;-78
2022/04/10 04:44:14;;;;;;;5.10;2.85;;;2.90;99.90;;;;;;5038963;28;20026;-78
2022/04/10 04:46:41;;;;;;;5.90;3.42;;;3.00;99.90;;;;;;5041318;28;20029;-78
2022/04/10 04:49:07;;;;;;;5.10;2.75;;;3.10;99.90;;;;;;5039689;28;20045;-79
2022/04/10 04:51:36;;;;;;;4.38;3.00;;;3.20;99.90;;;;;;5023046;28;20474;-78
2022/04/10 04:54:08;;;;;;;3.83;2.80;;;3.20;99.90;;;;;;5022220;28;20017;-78
2022/04/10 04:56:34;;;;;;;5.65;3.08;;;3.10;99.90;;;;;;5038349;28;20113;-77
2022/04/10 04:58:59;;;;;;;7.88;2.60;;;3.10;99.80;;;;;;5037749;28;20057;-79
2022/04/10 05:01:25;;;;;;;3.85;2.58;;;3.10;99.80;;;;;;5038272;28;20470;-77
2022/04/10 05:03:51;;;;;;;5.35;2.53;;;3.10;99.90;;;;;;5038955;28;20026;-78
2022/04/10 05:06:17;;;;;;;3.65;2.50;;;3.10;99.90;;;;;;5026007;28;20152;-78
2022/04/10 05:08:46;;;;;;;4.30;2.78;;;3.10;99.90;;;;;;5042252;28;20021;-77
2022/04/10 05:11:15;;;;;;;3.45;2.65;;;3.10;99.90;;;;;;5058586;28;20457;-78
2022/04/10 05:13:42;;;;;;;4.82;2.63;;;3.20;99.90;;;;;;5058739;28;20029;-78
2022/04/10 05:16:08;;;;;;;5.18;2.35;;;3.20;99.90;;;;;;5059607;28;20025;-78
2022/04/10 05:18:34;;;;;;;4.63;2.58;;;3.30;99.90;;;;;;5024138;28;20080;-78
2022/04/10 05:21:01;;;;;;;3.85;2.60;;;3.30;99.90;;;;;;5041269;28;20035;-78
2022/04/10 05:23:27;;;;;;;5.00;3.13;;;3.40;99.90;;;;;;5047866;28;20033;-78
2022/04/10 05:25:53;;;;;;;5.80;2.88;;;3.60;99.20;;;;;;5046428;28;20018;-79
2022/04/10 05:28:19;;;;;;;3.08;2.42;;;3.70;98.80;;;;;;5044206;28;20466;-79
2022/04/10 05:30:45;;;;;;;3.42;2.38;;;3.80;98.60;;;;;;5022348;28;20041;-77
2022/04/10 05:33:11;;;;;;;5.97;2.85;;;3.90;98.40;;;;;;5021853;28;20123;-78
2022/04/10 05:35:37;;;;;;;4.68;2.47;;;3.80;98.10;;;;;;5037816;28;20025;-78
2022/04/10 05:38:04;;;;;;;5.68;2.83;;;3.80;97.80;;;;;;5032636;28;20037;-82
2022/04/10 05:40:30;;;;;;;7.63;2.50;;;3.80;98.00;;;;;;5057576;28;20416;-77
2022/04/10 05:42:56;;;;;;;4.53;2.80;;;4.00;98.20;;;;;;5057432;28;20010;-77
2022/04/10 05:45:22;;;;;;;4.68;2.83;;;4.10;97.50;;;;;;5058438;28;20028;-78
2022/04/10 05:47:48;;;;;;;4.38;2.60;;;4.30;96.80;;;;;;5040018;28;20033;-77
2022/04/10 05:50:14;;;;;;;4.20;2.55;;;4.40;96.60;;;;;;5055908;28;20466;-77
2022/04/10 05:52:45;;;;;;;4.20;2.75;;;4.40;96.60;;;;;;5038392;28;20071;-77
2022/04/10 05:55:13;;;;;;;4.32;2.83;;;4.50;95.80;;;;;;5056805;28;20432;-77
2022/04/10 05:57:39;;;;;;;6.35;2.50;;;4.50;95.90;;;;;;5056562;28;20029;-78
2022/04/10 06:00:10;;;;;;;2.30;2.03;;;4.50;95.90;;;;;;5057299;28;20075;-78
2022/04/10 06:02:37;;;;;;;8.57;2.80;;;4.50;95.90;;;;;;5059181;28;20349;-80
2022/04/10 06:05:04;;;;;;;4.97;2.92;;;4.50;95.50;;;;;;5058921;28;20385;-79
2022/04/10 06:07:29;;;;;;;7.00;3.65;;;4.50;95.10;;;;;;5049446;28;20021;-78
2022/04/10 06:09:55;;;;;;;4.38;2.78;;;4.50;95.30;;;;;;5046596;28;20029;-80
2022/04/10 06:12:21;;;;;;;5.20;2.88;;;4.70;95.10;;;;;;5054579;28;20028;-79
2022/04/10 06:14:46;;;;;;;4.90;3.17;;;4.80;94.40;;;;;;5048389;28;20033;-80
2022/04/10 06:17:12;;;;;;;4.22;2.72;;;4.90;94.20;;;;;;5044867;28;20022;-80
2022/04/10 06:19:38;;;;;;;5.47;2.75;;;4.90;93.80;;;;;;5041239;28;20065;-78
2022/04/10 06:22:07;;;;;;;8.15;3.45;;;4.80;93.60;;;;;;5043186;28;20025;-81
2022/04/10 06:24:32;;;;;;;7.03;3.13;;;4.70;93.50;;;;;;5047832;28;20022;-79
2022/04/10 06:26:59;;;;;;;7.28;3.20;;;4.70;93.70;;;;;;5032571;28;20068;-80
2022/04/10 06:29:25;;;;;;;5.53;3.35;;;4.70;93.50;;;;;;5046102;28;20021;-80
2022/04/10 06:31:50;;;;;;;4.22;3.22;;;4.70;93.90;;;;;;5042617;28;20385;-81
2022/04/10 06:34:16;;;;;;;5.57;2.97;;;4.80;93.80;;;;;;5042756;28;20108;-81
2022/04/10 06:36:42;;;;;;;5.22;3.00;;;4.70;94.20;;;;;;5051165;28;20018;-81
2022/04/10 06:39:09;;;;;;;4.22;2.58;;;4.70;94.60;;;;;;5025497;28;20033;-80
2022/04/10 06:41:35;;;;;;;7.28;3.50;;;4.70;94.70;;;;;;5041284;28;20104;-80
2022/04/10 06:44:03;;;;;;;6.45;2.75;;;4.80;94.90;;;;;;5040745;28;20071;-80
2022/04/10 06:46:29;;;;;;;5.45;3.13;;;5.00;94.70;;;;;;5022585;28;20479;-80
2022/04/10 06:48:55;;;;;;;5.70;3.13;;;5.30;93.80;;;;;;5041705;28;20077;-79
2022/04/10 06:51:21;;;;;;;5.40;2.75;;;5.40;92.90;;;;;;5039436;28;20031;-80
2022/04/10 06:53:47;;;;;;;5.45;3.15;;;5.60;92.80;;;;;;5021175;28;20483;-79
2022/04/10 06:56:14;;;;;;;3.45;3.08;;;5.80;92.60;;;;;;5038361;28;20033;-80
2022/04/10 06:58:40;;;;;;;10.00;3.65;;;6.10;92.30;;;;;;5038243;28;20034;-80
2022/04/10 07:01:05;;;;;;;4.97;3.30;;;6.30;91.30;;;;;;5040271;28;20524;-80
2022/04/10 07:03:31;;;;;;;5.40;3.15;;;6.40;90.60;;;;;;5037628;28;20030;-81
2022/04/10 07:05:57;;;;;;;2.90;2.60;;;6.40;89.70;;;;;;5028112;28;20021;-79
2022/04/10 07:08:23;;;;;;;6.10;3.22;;;6.50;90.10;;;;;;5047893;28;20024;-79
2022/04/10 07:10:49;;;;;;;4.38;2.85;;;6.50;90.20;;;;;;5055446;28;20049;-80
2022/04/10 07:13:18;;;;;;;3.03;2.72;;;6.40;90.00;;;;;;5061498;28;20025;-80
2022/04/10 07:15:50;;;;;;;5.15;2.85;;;6.40;89.20;;;;;;5042764;28;20025;-80
2022/04/10 07:18:16;;;;;;;5.63;3.20;;;6.40;88.20;;;;;;5062477;28;20351;-79
2022/04/10 07:20:41;;;;;;;4.25;3.03;;;6.40;88.80;;;;;;5055965;28;20389;-79
2022/04/10 07:25:53;;;;;;;4.30;2.92;;;6.60;88.80;;;;;;5042964;28;20040;-80
2022/04/10 07:28:19;;;;;;;4.80;3.20;;;6.70;87.20;;;;;;5040417;28;20109;-79
2022/04/10 07:30:45;;;;;;;5.55;2.78;;;6.90;85.50;;;;;;5041023;28;20393;-80
2022/04/10 07:33:11;;;;;;;4.65;2.95;;;6.90;85.80;;;;;;5023045;28;20116;-79
2022/04/10 07:35:40;;;;;;;7.15;3.70;;;6.90;84.40;;;;;;5040346;28;20056;-78
2022/04/10 07:38:06;;;;;;;5.63;3.00;;;6.80;84.60;;;;;;5034791;28;20489;-79
2022/04/10 07:40:52;;;;;;;4.53;2.83;;;6.90;85.00;;;;;;5041670;28;20032;-84
2022/04/10 07:43:17;;;;;;;3.78;2.53;;;7.40;82.60;;;;;;5039026;28;20045;-80
2022/04/10 07:48:27;;;;;;;4.70;2.72;;;7.50;80.20;;;;;;5050796;28;20035;-80
2022/04/10 07:50:55;;;;;;;4.20;2.92;;;7.50;77.90;;;;;;5060744;28;20104;-80
2022/04/10 07:53:21;;;;;;;5.05;3.05;;;7.40;75.90;;;;;;5064210;28;20045;-79
2022/04/10 07:55:46;;;;;;;6.22;2.88;;;7.40;77.40;;;;;;5065426;28;20021;-79
2022/04/10 07:58:12;;;;;;;5.75;3.03;;;7.40;77.50;;;;;;5064552;28;20029;-79
2022/04/10 08:00:38;;;;;;;5.32;3.45;;;7.60;75.90;;;;;;5064788;28;20078;-78
2022/04/10 08:03:03;;;;;;;3.97;3.08;;;7.50;74.60;;;;;;5064382;28;20022;-79
2022/04/10 08:05:29;;;;;;;6.22;3.08;;;7.20;74.90;;;;;;5063131;28;20048;-80
2022/04/10 08:07:55;;;;;;;5.45;3.13;;;6.90;76.60;;;;;;5042839;28;20119;-79
2022/04/10 08:10:21;;;;;;;7.05;3.08;;;6.90;77.00;;;;;;5043399;28;20087;-79
2022/04/10 08:12:47;;;;;;;5.60;3.40;;;7.30;74.60;;;;;;5043951;28;20029;-79
2022/04/10 08:15:13;;;;;;;4.85;2.67;;;7.50;73.10;;;;;;5063153;28;20033;-80
2022/04/10 08:17:41;;;;;;;4.18;2.85;;;7.30;72.00;;;;;;5049252;28;20021;-80
2022/04/10 08:20:08;;;;;;;5.75;2.92;;;7.40;70.70;;;;;;5050101;28;20026;-79
2022/04/10 08:22:36;;;;;;;4.20;2.35;;;7.80;70.10;;;;;;5051177;28;20068;-80
2022/04/10 08:25:11;;;;;;;3.78;1.92;;;8.20;68.50;;;;;;5041964;28;20018;-79
2022/04/10 08:27:37;;;;;;;2.80;1.83;;;8.60;65.50;;;;;;5042084;28;20044;-79
2022/04/10 08:30:12;;;;;;;4.35;2.00;;;8.80;62.40;;;;;;5044182;28;20131;-80
2022/04/10 08:32:40;;;;;;;3.70;2.45;;;9.00;61.50;;;;;;5043032;28;20049;-78
2022/04/10 08:35:07;;;;;;;3.58;1.83;;;9.00;61.20;;;;;;5044230;28;20033;-80
2022/04/10 08:37:33;;;;;;;5.60;2.80;;;8.50;61.00;;;;;;5062472;28;20060;-80
2022/04/10 08:39:59;;;;;;;3.58;2.25;;;8.00;62.40;;;;;;5044051;28;20026;-80
2022/04/10 08:42:24;;;;;;;5.07;2.55;;;7.50;64.60;;;;;;5043148;28;20390;-80
2022/04/10 08:44:51;;;;;;;6.13;2.70;;;7.10;67.10;;;;;;5044072;28;20022;-79
2022/04/10 08:47:20;;;;;;;3.85;2.63;;;6.70;71.60;;;;;;5045432;28;20069;-79
2022/04/10 08:49:47;;;;;;;3.90;2.42;;;6.30;75.00;;;;;;5065008;28;20021;-79
2022/04/10 08:52:14;;;;;;;3.53;2.25;;;5.90;75.20;;;;;;5070107;28;20029;-79
2022/04/10 08:54:41;;;;;;;3.88;2.45;;;5.70;77.20;;;;;;5070684;28;20028;-80
2022/04/10 08:57:07;;;;;;;4.60;2.35;;;5.60;78.10;;;;;;5052203;28;20032;-80
2022/04/10 08:59:33;;;;;;;6.45;2.88;;;5.60;79.70;;;;;;5050019;28;20021;-79
2022/04/10 09:01:59;;;;;;;2.80;2.10;;;5.70;77.60;;;;;;5045727;28;20031;-79
2022/04/10 09:04:25;;;;;;;6.10;2.40;;;5.70;75.10;;;;;;5044226;28;20059;-79
2022/04/10 09:07:08;;;;;;;4.72;2.65;;;5.90;75.00;;;;;;5060630;28;20032;-79
2022/04/10 09:09:36;;;;;;;4.05;1.80;;;6.50;74.00;;;;;;5032221;28;20035;-81
2022/04/10 09:12:03;;;;;;;3.20;2.03;;;7.20;72.80;;;;;;5043306;28;20049;-80
2022/04/10 09:14:40;;;;;;;7.45;2.40;;;8.00;70.50;;;;;;5044824;28;20512;-81
2022/04/10 09:17:09;;;;;;;3.67;1.63;;;8.60;64.60;;;;;;5045067;28;20029;-80
2022/04/10 09:19:36;;;;;;;4.00;1.98;;;9.40;62.30;;;;;;5051452;28;20033;-81
2022/04/10 09:22:28;;;;;;;4.97;1.73;;;9.80;56.10;;;;;;5044894;28;20043;-80
2022/04/10 09:25:20;;;;;;;2.70;1.60;;;10.10;53.40;;;;;;5041006;28;20071;-79
2022/04/10 09:27:50;;;;;;;3.97;1.40;;;10.10;52.90;;;;;;5037254;28;20044;-79
2022/04/10 09:30:20;;;;;;;3.53;1.98;;;10.40;52.80;;;;;;5056418;28;20350;-79
2022/04/10 09:32:51;;;;;;;5.18;1.75;;;10.50;51.30;;;;;;5061943;28;20108;-79
2022/04/10 09:35:22;;;;;;;2.97;1.73;;;10.20;51.80;;;;;;5057838;28;20037;-78
2022/04/10 09:37:51;;;;;;;5.20;1.90;;;10.00;52.20;;;;;;5029679;28;20089;-79
2022/04/10 09:40:25;;;;;;;4.15;1.67;;;10.10;52.10;;;;;;5041656;28;20075;-79
2022/04/10 09:42:56;;;;;;;5.15;1.70;;;10.60;50.70;;;;;;5042354;28;20501;-79
2022/04/10 09:45:33;;;;;;;3.85;1.60;;;10.90;49.60;;;;;;5041864;28;20052;-80
2022/04/10 09:48:18;;;;;;;3.25;1.60;;;10.80;47.80;;;;;;5040527;28;20030;-80
2022/04/10 09:50:44;;;;;;;9.10;1.73;;;10.20;49.50;;;;;;5040700;28;20053;-78
2022/04/10 09:53:11;;;;;;;2.13;1.35;;;10.30;49.00;;;;;;5041916;28;20037;-79
2022/04/10 09:55:44;;;;;;;5.13;1.92;;;10.50;49.40;;;;;;5042352;28;20043;-79
2022/04/10 09:58:10;;;;;;;;;;;10.20;49.80;;;;;;5040161;28;20108;-80
2022/04/10 10:00:42;;;;;;;2.40;1.80;;;9.80;50.70;;;;;;5041070;28;19917;-79
2022/04/10 10:03:08;;;;;;;;;;;9.30;51.70;;;;;;5043461;28;20029;-80
2022/04/10 10:05:35;;;;;;;1.50;1.40;;;8.80;53.10;;;;;;5046671;28;20428;-79
2022/04/10 10:08:01;;;;;;;3.95;1.25;;;8.40;53.50;;;;;;5047913;28;20039;-80
2022/04/10 10:10:32;;;;;;;1.95;1.17;;;8.70;52.90;;;;;;5043812;28;20037;-79
2022/04/10 10:13:05;;;;;;;2.30;1.33;;;9.70;49.60;;;;;;5051512;28;20036;-80
2022/04/10 10:15:32;;;;;;;3.85;1.27;;;10.30;47.70;;;;;;5030101;28;20034;-81
2022/04/10 10:18:03;;;;;;;3.15;1.00;;;10.60;47.60;;;;;;5045872;28;20080;-79
2022/04/10 10:20:29;;;;;;;2.22;1.25;;;10.60;47.50;;;;;;5044891;28;20045;-80
2022/04/10 10:22:57;;;;;;;2.97;1.17;;;10.40;47.20;;;;;;5044316;28;20029;-80
2022/04/10 10:25:27;;;;;;;2.75;1.20;;;9.80;48.70;;;;;;5055898;28;20021;-79
2022/04/10 10:28:08;;;;;;;3.05;1.45;;;9.20;49.30;;;;;;5048794;28;20471;-80
2022/04/10 10:31:12;;;;;;;4.78;1.70;;;8.50;52.20;;;;;;5041972;28;20043;-79
2022/04/10 10:33:47;;;;;;;1.40;1.30;;;7.90;55.20;;;;;;5043277;28;20144;-80
2022/04/10 10:36:22;;;;;;;2.78;1.58;;;7.80;56.10;;;;;;5044039;28;20378;-80
2022/04/10 10:38:52;;;;;;;5.15;1.83;;;7.90;55.40;;;;;;5046678;28;20047;-80
2022/04/10 10:41:18;;;;;;;6.53;1.50;;;8.10;55.80;;;;;;5066612;28;20021;-80
2022/04/10 10:43:45;;;;;;;4.13;1.48;;;8.50;55.70;;;;;;5055636;28;20018;-80
2022/04/10 10:46:21;;;;;;;2.20;1.35;;;8.90;53.90;;;;;;5040763;28;20385;-80
2022/04/10 10:48:50;;;;;;;2.20;1.13;;;9.40;52.70;;;;;;5039656;28;20040;-79
2022/04/10 10:51:16;;;;;;;2.13;0.90;;;10.10;50.20;;;;;;5027326;28;20030;-81
2022/04/10 10:53:43;;;;;;;2.05;1.20;;;10.80;49.70;;;;;;5028260;28;20025;-80
2022/04/10 10:56:17;;;;;;;1.92;0.90;;;11.40;45.30;;;;;;5044083;28;20019;-79
2022/04/10 10:58:44;;;;;;;3.17;1.30;;;11.60;45.20;;;;;;5042302;28;20509;-81
2022/04/10 11:01:19;;;;;;;4.97;1.23;;;11.50;44.40;;;;;;5043877;28;20055;-81
2022/04/10 11:04:05;;;;;;;2.17;1.23;;;11.20;44.40;;;;;;5024959;28;20017;-80
2022/04/10 11:06:41;;;;;;;3.28;1.25;;;10.70;44.60;;;;;;5049530;28;20021;-79
2022/04/10 11:09:30;;;;;;;2.28;1.45;;;10.10;45.50;;;;;;5061368;28;20021;-79
2022/04/10 11:11:58;;;;;;;3.78;1.73;;;9.60;47.00;;;;;;5061410;28;20033;-80
2022/04/10 11:14:41;;;;;;;3.47;1.40;;;9.30;48.30;;;;;;5057564;28;20342;-80
2022/04/10 11:17:31;;;;;;;3.88;1.17;;;9.20;49.00;;;;;;5054186;28;20052;-82
2022/04/10 11:20:07;;;;;;;3.15;1.15;;;9.00;49.40;;;;;;5046070;28;20037;-80
2022/04/10 11:22:44;;;;;;;3.13;1.00;;;9.00;50.60;;;;;;5022142;28;20025;-80
2022/04/10 11:25:10;;;;;;;4.53;1.33;;;9.30;50.10;;;;;;5038010;28;20083;-79
2022/04/10 11:27:41;;;;;;;2.15;1.10;;;9.50;49.20;;;;;;5019005;28;20022;-79
2022/04/10 11:30:08;;;;;;;3.75;1.65;;;9.60;48.90;;;;;;5038200;28;20517;-79
2022/04/10 11:32:50;;;;;;;2.00;1.60;;;9.60;48.00;;;;;;5039719;28;20043;-79
2022/04/10 11:35:18;;;;;;;;;;;9.30;48.30;;;;;;5039490;28;20048;-80
2022/04/10 11:37:47;;;;;;;1.38;1.25;;;8.90;51.00;;;;;;5047763;28;19917;-79
2022/04/10 11:40:18;;;;;;;2.63;1.45;;;8.40;53.70;;;;;;5038183;28;20040;-79
2022/04/10 11:42:43;;;;;;;4.63;1.88;;;8.20;56.90;;;;;;5038661;28;20356;-78
2022/04/10 11:45:10;;;;;;;3.80;1.33;;;8.10;60.20;;;;;;5021667;28;20041;-79
2022/04/10 11:47:38;;;;;;;5.07;1.83;;;8.20;62.20;;;;;;5039539;28;20252;-79
2022/04/10 11:50:06;;;;;;;4.55;2.00;;;8.30;63.30;;;;;;5040457;28;20035;-79
2022/04/10 11:52:32;;;;;;;2.83;1.90;;;8.50;63.60;;;;;;5040388;28;20037;-78
2022/04/10 11:54:57;;;;;;;4.47;1.55;;;8.70;62.80;;;;;;5038497;28;20324;-78
2022/04/10 11:57:24;;;;;;;5.40;1.63;;;8.60;63.10;;;;;;5038732;28;20429;-80
2022/04/10 11:59:50;;;;;;;2.00;1.20;;;8.40;63.70;;;;;;5037734;28;20040;-79
2022/04/10 12:02:17;;;;;;;2.00;1.30;;;8.40;65.20;;;;;;5036575;28;20073;-78
2022/04/10 12:04:44;;;;;;;2.78;1.38;;;8.50;63.90;;;;;;5035504;28;20029;-78
2022/04/10 12:07:20;;;;;;;1.73;1.00;;;8.90;62.20;;;;;;5013642;28;20021;-79
2022/04/10 12:09:54;;;;;;;1.65;1.13;;;9.70;60.30;;;;;;5037342;28;20012;-80
2022/04/10 12:12:22;;;;;;;4.95;1.42;;;10.20;59.10;;;;;;5038057;28;20030;-80
2022/04/10 12:14:48;;;;;;;2.60;1.45;;;10.50;56.50;;;;;;5038061;28;20026;-79
2022/04/10 12:17:18;;;;;;;5.20;1.55;;;10.80;55.10;;;;;;5038905;28;20025;-79
2022/04/10 12:19:44;;;;;;;4.07;1.90;;;10.80;54.50;;;;;;5038028;28;20037;-81
2022/04/10 12:22:11;;;;;;;3.90;1.83;;;10.30;55.60;;;;;;5038161;28;20022;-80
2022/04/10 12:24:37;;;;;;;1.65;1.33;;;9.80;57.10;;;;;;5038268;28;20021;-79
2022/04/10 12:27:09;;;;;;;1.92;1.40;;;9.60;58.70;;;;;;5039107;28;20156;-83
2022/04/10 12:29:36;;;;;;;2.90;1.63;;;9.70;58.90;;;;;;5042973;28;20041;-80
2022/04/10 12:32:03;;;;;;;2.83;1.50;;;10.10;59.90;;;;;;5046435;28;20371;-79
2022/04/10 12:34:41;;;;;;;4.63;2.10;;;10.50;58.70;;;;;;5043196;28;20030;-79
2022/04/10 12:37:09;;;;;;;3.90;2.20;;;10.30;57.50;;;;;;5057492;28;20025;-79
2022/04/10 12:39:36;;;;;;;1.52;1.40;;;9.70;57.90;;;;;;5040190;28;20033;-79
2022/04/10 12:42:22;;;;;;;2.60;1.88;;;9.30;59.80;;;;;;5039582;28;20044;-80
2022/04/10 12:44:57;;;;;;;4.10;1.67;;;9.30;59.60;;;;;;5041438;28;20032;-80
2022/04/10 12:47:58;;;;;;;2.08;1.30;;;9.40;59.70;;;;;;5041811;28;20384;-80
2022/04/10 12:50:26;;;;;;;2.95;1.50;;;10.00;59.40;;;;;;4957930;29;20031;-80
2022/04/10 12:52:52;;;;;;;3.08;1.55;;;10.60;57.50;;;;;;5021539;28;20037;-79
2022/04/10 12:55:27;;;;;;;2.80;1.63;;;11.20;52.50;;;;;;5020755;28;20037;-81
2022/04/10 12:57:59;;;;;;;4.78;1.90;;;11.50;48.60;;;;;;5038295;28;20494;-80
2022/04/10 13:00:27;;;;;;;2.70;1.88;;;11.40;47.80;;;;;;5037672;28;20486;-78
2022/04/10 13:02:53;;;;;;;2.53;1.20;;;11.20;49.00;;;;;;5041443;28;20052;-79
2022/04/10 13:05:19;;;;;;;1.67;1.40;;;11.20;49.60;;;;;;5041810;28;20021;-79